Time;durP1;ratioP1;P1;durP2;ratioP2;P2;SDS_P1;SDS_P2;PMS_P1;PMS_P2;Temp;Humidity;BMP_temperature;BMP_pressure;BME280_temperature;BME280_humidity;BME280_pressure;Samples;Min_cycle;Max_cycle;Signal;HPM_P1;HPM_P2
2021/12/27 00:00:47;;;;;;;4.70;4.50;;;;;;;3.96;100.00;92021.44;4881670;29;20557;-77
2021/12/27 00:03:15;;;;;;;4.83;2.93;;;;;;;3.97;100.00;92028.06;4883135;29;20505;-78
2021/12/27 00:05:42;;;;;;;2.50;2.40;;;;;;;3.27;100.00;91913.44;4883272;29;20564;-78
2021/12/27 00:08:11;;;;;;;2.10;2.00;;;;;;;3.59;100.00;91957.50;4883457;29;20183;-79
2021/12/27 00:10:39;;;;;;;2.17;2.10;;;;;;;3.58;100.00;91973.34;4883384;29;20514;-78
2021/12/27 00:13:07;;;;;;;2.77;2.57;;;;;;;3.89;100.00;92020.78;4882730;29;20491;-78
2021/12/27 00:15:35;;;;;;;2.90;2.80;;;;;;;3.71;100.00;91997.13;4889719;28;20537;-79
2021/12/27 00:18:02;;;;;;;3.90;3.30;;;;;;;3.76;100.00;92014.50;4886688;28;20568;-78
2021/12/27 00:20:31;;;;;;;3.23;3.13;;;;;;;3.92;100.00;92020.72;4883122;29;20581;-78
2021/12/27 00:22:59;;;;;;;2.60;2.47;;;;;;;3.85;100.00;92013.41;4884281;29;20211;-78
2021/12/27 00:25:29;;;;;;;2.30;2.20;;;;;;;4.10;100.00;92035.19;4883034;29;20530;-78
2021/12/27 00:27:56;;;;;;;6.10;2.07;;;;;;;3.81;100.00;91987.72;4882452;29;20229;-78
2021/12/27 00:30:24;;;;;;;2.93;2.73;;;;;;;3.87;100.00;91981.72;4882392;29;20710;-77
2021/12/27 00:32:52;;;;;;;4.10;2.43;;;;;;;3.58;100.00;91932.56;4883126;29;20521;-79
2021/12/27 00:35:22;;;;;;;2.80;1.23;;;;;;;3.55;100.00;91938.47;4882719;29;20479;-79
2021/12/27 00:37:49;;;;;;;1.40;1.40;;;;;;;3.86;100.00;91982.56;4881570;29;20537;-78
2021/12/27 00:40:17;;;;;;;4.67;4.37;;;;;;;4.01;100.00;91992.94;4882529;29;20610;-79
2021/12/27 00:42:46;;;;;;;2.33;2.27;;;;;;;4.01;100.00;91972.13;4882315;29;20373;-78
2021/12/27 00:45:15;;;;;;;1.77;1.77;;;;;;;4.34;100.00;92015.38;4882318;29;20615;-78
2021/12/27 00:47:43;;;;;;;2.47;2.37;;;;;;;3.99;100.00;91962.22;4882481;29;20655;-79
2021/12/27 00:50:11;;;;;;;1.33;1.33;;;;;;;4.07;100.00;91979.47;4882598;29;20646;-78
2021/12/27 00:52:38;;;;;;;1.03;1.03;;;;;;;3.65;100.00;91911.56;4882835;28;20544;-78
2021/12/27 00:55:08;;;;;;;1.63;1.63;;;;;;;3.68;100.00;91902.31;4882260;29;20460;-79
2021/12/27 00:57:35;;;;;;;1.23;1.23;;;;;;;3.68;100.00;91904.81;4882256;29;20214;-77
2021/12/27 01:00:05;;;;;;;1.27;1.27;;;;;;;4.26;100.00;91982.25;4882351;29;20469;-78
2021/12/27 01:02:33;;;;;;;0.90;0.90;;;;;;;4.01;100.00;91939.66;4882378;29;20599;-77
2021/12/27 01:05:00;;;;;;;1.13;1.03;;;;;;;4.18;100.00;91982.47;4881999;29;20483;-77
2021/12/27 01:07:28;;;;;;;5.80;1.67;;;;;;;3.90;100.00;91912.50;4881974;29;20568;-78
2021/12/27 01:10:06;;;;;;;1.47;1.47;;;;;;;3.85;100.00;91909.31;4882124;29;20638;-78
2021/12/27 01:12:46;;;;;;;1.70;1.70;;;;;;;3.93;100.00;91917.41;4881898;29;20579;-77
2021/12/27 01:15:34;;;;;;;3.23;2.17;;;;;;;3.96;100.00;91911.50;4882105;29;20539;-77
2021/12/27 01:18:04;;;;;;;3.73;2.67;;;;;;;4.34;100.00;91971.16;4882767;29;20576;-78
2021/12/27 01:20:32;;;;;;;2.50;2.40;;;;;;;4.51;100.00;91986.47;4881527;29;20290;-78
2021/12/27 01:23:00;;;;;;;10.73;2.50;;;;;;;3.94;100.00;91909.06;4881812;29;20195;-77
2021/12/27 01:25:28;;;;;;;1.93;1.83;;;;;;;4.17;100.00;91954.16;4881707;29;20599;-77
2021/12/27 01:27:55;;;;;;;2.73;2.60;;;;;;;4.31;100.00;91980.44;4881700;29;20664;-77
2021/12/27 01:30:24;;;;;;;3.17;2.90;;;;;;;4.38;100.00;91980.22;4881624;29;20608;-77
2021/12/27 01:32:57;;;;;;;2.53;2.43;;;;;;;4.15;100.00;91938.41;4881489;29;20543;-77
2021/12/27 01:35:24;;;;;;;3.87;3.77;;;;;;;4.21;100.00;91946.59;4882143;29;20654;-77
2021/12/27 01:37:53;;;;;;;2.83;2.63;;;;;;;4.53;100.00;92012.25;4881517;29;20651;-78
2021/12/27 01:40:24;;;;;;;3.53;3.33;;;;;;;4.22;100.00;91958.22;4886339;28;20649;-78
2021/12/27 01:43:10;;;;;;;3.50;3.37;;;;;;;4.49;100.00;92014.91;4886613;28;20575;-78
2021/12/27 01:45:42;;;;;;;6.87;6.13;;;;;;;4.01;100.00;91957.97;4881837;29;20548;-78
2021/12/27 01:48:10;;;;;;;4.10;3.80;;;;;;;4.06;100.00;91963.66;4882374;29;20556;-78
2021/12/27 01:50:40;;;;;;;3.37;3.07;;;;;;;3.68;100.00;91902.31;4882324;29;20559;-77
2021/12/27 01:53:08;;;;;;;3.23;3.03;;;;;;;3.76;100.00;91904.59;4882335;28;20495;-78
2021/12/27 01:55:36;;;;;;;5.03;4.00;;;;;;;4.21;100.00;91979.91;4880774;29;20580;-77
2021/12/27 01:58:04;;;;;;;2.97;2.83;;;;;;;4.16;100.00;91980.03;4881139;29;20487;-77
2021/12/27 02:00:33;;;;;;;2.87;2.67;;;;;;;3.81;100.00;91916.94;4881181;29;20595;-77
2021/12/27 02:03:03;;;;;;;2.97;2.87;;;;;;;3.56;100.00;91889.34;4881040;29;20651;-77
2021/12/27 02:05:31;;;;;;;5.60;2.00;;;;;;;4.15;100.00;91975.06;4880776;29;20603;-78
2021/12/27 02:07:58;;;;;;;4.00;3.80;;;;;;;3.65;100.00;91889.91;4880577;29;20543;-78
2021/12/27 02:10:26;;;;;;;3.53;2.47;;;;;;;3.70;100.00;91894.78;4881288;29;20569;-77
2021/12/27 02:12:53;;;;;;;3.10;2.97;;;;;;;3.54;100.00;91861.94;4880636;29;20584;-77
2021/12/27 02:15:21;;;;;;;5.30;2.17;;;;;;;4.18;100.00;91960.78;4880756;29;20477;-78
2021/12/27 02:17:49;;;;;;;2.77;2.67;;;;;;;3.71;100.00;91892.25;4880587;29;20191;-78
2021/12/27 02:20:21;;;;;;;3.53;3.33;;;;;;;3.57;100.00;91876.00;4880683;28;20556;-78
2021/12/27 02:22:54;;;;;;;3.60;3.40;;;;;;;4.16;100.00;91954.22;4899076;28;20543;-78
2021/12/27 02:25:22;;;;;;;2.43;2.20;;;;;;;3.78;100.00;91899.53;4899966;28;20563;-78
2021/12/27 02:27:50;;;;;;;1.77;1.50;;;;;;;4.16;100.00;91955.03;4899043;28;20609;-78
2021/12/27 02:30:19;;;;;;;4.63;2.37;;;;;;;4.10;100.00;91939.41;4899472;28;20672;-78
2021/12/27 02:32:48;;;;;;;1.70;1.60;;;;;;;4.15;100.00;91930.09;4899184;28;20559;-77
2021/12/27 02:35:19;;;;;;;1.67;1.67;;;;;;;4.11;100.00;91911.06;4899864;28;20657;-78
2021/12/27 02:37:47;;;;;;;2.03;1.93;;;;;;;4.02;100.00;91921.31;4899439;28;20198;-77
2021/12/27 02:40:15;;;;;;;2.53;1.77;;;;;;;4.10;100.00;91940.22;4898670;28;20559;-78
2021/12/27 02:42:56;;;;;;;2.40;2.30;;;;;;;4.12;100.00;91948.47;4899024;28;20518;-77
2021/12/27 02:45:24;;;;;;;8.63;2.63;;;;;;;3.69;100.00;91863.16;4899687;28;20509;-78
2021/12/27 02:47:52;;;;;;;2.67;2.57;;;;;;;3.89;100.00;91910.84;4899110;28;20558;-78
2021/12/27 02:50:22;;;;;;;2.53;2.33;;;;;;;3.63;100.00;91868.34;4899170;28;20503;-78
2021/12/27 02:52:49;;;;;;;2.90;2.80;;;;;;;4.09;100.00;91932.75;4898904;28;20633;-77
2021/12/27 02:55:18;;;;;;;2.73;2.63;;;;;;;4.11;100.00;91929.34;4899347;28;20558;-78
2021/12/27 02:57:48;;;;;;;1.93;1.83;;;;;;;3.38;100.00;91822.47;4898759;28;20559;-77
2021/12/27 03:00:20;;;;;;;3.17;2.63;;;;;;;3.65;100.00;91846.66;4900135;28;20535;-78
2021/12/27 03:02:49;;;;;;;1.77;1.77;;;;;;;4.11;100.00;91933.56;4898612;28;20494;-78
2021/12/27 03:05:18;;;;;;;2.20;2.00;;;;;;;4.08;100.00;91924.44;4899015;28;20575;-78
2021/12/27 03:07:48;;;;;;;2.23;2.13;;;;;;;4.11;100.00;91931.06;4891231;28;20207;-77
2021/12/27 03:10:18;;;;;;;2.40;2.20;;;;;;;4.12;100.00;91932.66;4895480;28;20595;-77
2021/12/27 03:12:46;;;;;;;1.73;1.73;;;;;;;4.04;100.00;91925.41;4898597;28;20577;-78
2021/12/27 03:15:16;;;;;;;2.03;1.87;;;;;;;4.09;100.00;91923.59;4898266;28;20277;-77
2021/12/27 03:17:46;;;;;;;2.20;2.13;;;;;;;3.89;100.00;91892.56;4898934;28;20467;-77
2021/12/27 03:20:17;;;;;;;2.20;2.10;;;;;;;4.02;100.00;91912.13;4898979;28;20554;-78
2021/12/27 03:22:46;;;;;;;2.07;1.97;;;;;;;3.83;100.00;91911.03;4898954;28;20205;-78
2021/12/27 03:25:17;;;;;;;1.80;1.70;;;;;;;4.04;100.00;91932.91;4899193;28;20527;-77
2021/12/27 03:27:45;;;;;;;15.50;2.63;;;;;;;4.02;100.00;91936.31;4898756;28;20252;-77
2021/12/27 03:30:15;;;;;;;2.47;2.37;;;;;;;3.67;100.00;91863.19;4899022;28;20617;-77
2021/12/27 03:32:42;;;;;;;9.43;3.17;;;;;;;4.04;100.00;91929.59;4899171;28;20480;-77
2021/12/27 03:35:14;;;;;;;2.50;2.40;;;;;;;3.75;100.00;91873.78;4898921;28;20645;-77
2021/12/27 03:37:46;;;;;;;2.97;2.83;;;;;;;3.99;100.00;91892.25;4902628;28;20190;-78
2021/12/27 03:40:18;;;;;;;2.10;2.03;;;;;;;3.60;100.00;91831.81;4902605;28;20586;-77
2021/12/27 03:42:49;;;;;;;2.53;2.40;;;;;;;4.01;100.00;91898.00;4901804;28;20641;-78
2021/12/27 03:45:18;;;;;;;2.83;1.87;;;;;;;3.55;100.00;91853.56;4902592;28;20649;-77
2021/12/27 03:47:46;;;;;;;17.67;2.80;;;;;;;4.02;100.00;91916.31;4902333;28;20573;-78
2021/12/27 03:50:14;;;;;;;4.47;3.17;;;;;;;3.53;100.00;91849.50;4902019;28;20553;-77
2021/12/27 03:52:41;;;;;;;3.40;3.20;;;;;;;3.51;100.00;91838.72;4883834;29;20597;-78
2021/12/27 03:55:10;;;;;;;4.03;3.73;;;;;;;4.02;100.00;91913.81;4883448;29;20542;-77
2021/12/27 03:57:41;;;;;;;3.17;2.93;;;;;;;4.03;100.00;91907.94;4882915;29;20215;-78
2021/12/27 04:00:28;;;;;;;2.57;2.47;;;;;;;4.07;100.00;91904.50;4883883;29;20544;-77
2021/12/27 04:02:58;;;;;;;4.73;4.33;;;;;;;3.87;100.00;91872.63;4883355;29;20564;-78
2021/12/27 04:05:25;;;;;;;5.00;4.43;;;;;;;3.57;100.00;91824.38;4883494;29;20636;-78
2021/12/27 04:08:00;;;;;;;3.43;3.30;;;;;;;3.99;100.00;91892.25;4883520;29;20566;-77
2021/12/27 04:10:28;;;;;;;3.37;3.27;;;;;;;3.61;100.00;91842.56;4883155;29;20634;-77
2021/12/27 04:12:58;;;;;;;2.97;2.77;;;;;;;3.78;100.00;91852.88;4882866;29;20595;-78
2021/12/27 04:15:25;;;;;;;3.93;3.73;;;;;;;3.79;100.00;91853.72;4882870;29;20567;-77
2021/12/27 04:17:53;;;;;;;3.77;3.17;;;;;;;3.86;100.00;91860.16;4883589;29;20597;-77
2021/12/27 04:20:22;;;;;;;3.23;3.03;;;;;;;4.06;100.00;91880.34;4883908;29;20603;-78
2021/12/27 04:22:50;;;;;;;3.83;3.63;;;;;;;4.21;100.00;91891.59;4883699;29;20654;-78
2021/12/27 04:25:18;;;;;;;2.83;2.73;;;;;;;4.06;100.00;91867.88;4882087;29;20551;-77
2021/12/27 04:27:47;;;;;;;2.53;2.43;;;;;;;4.23;100.00;91910.66;4882907;29;20207;-77
2021/12/27 04:30:17;;;;;;;4.23;3.93;;;;;;;3.58;100.00;91807.72;4882629;29;20560;-78
2021/12/27 04:32:45;;;;;;;4.83;4.43;;;;;;;3.86;100.00;91865.97;4882966;29;20599;-77
2021/12/27 04:35:15;;;;;;;5.73;5.47;;;;;;;3.92;100.00;91869.97;4882522;29;20621;-78
2021/12/27 04:37:42;;;;;;;5.87;5.47;;;;;;;3.89;100.00;91850.88;4882547;29;20572;-78
2021/12/27 04:40:12;;;;;;;6.43;6.03;;;;;;;3.62;100.00;91809.25;4881850;29;20270;-78
2021/12/27 04:42:41;;;;;;;6.83;6.23;;;;;;;4.04;100.00;91867.94;4881970;29;20243;-78
2021/12/27 04:45:11;;;;;;;8.27;6.83;;;;;;;3.67;100.00;91812.44;4882141;29;20674;-77
2021/12/27 04:47:40;;;;;;;6.73;5.20;;;;;;;3.69;100.00;91806.53;4884116;28;20572;-78
2021/12/27 04:50:08;;;;;;;24.80;7.20;;;;;;;3.86;100.00;91845.19;4891843;28;20518;-78
2021/12/27 04:52:36;;;;;;;8.00;6.70;;;;;;;4.00;100.00;91868.88;4881925;29;20580;-78
2021/12/27 04:55:04;;;;;;;9.47;8.53;;;;;;;4.17;100.00;91903.34;4883321;29;20631;-78
2021/12/27 04:57:31;;;;;;;9.10;8.50;;;;;;;3.92;100.00;91843.31;4881480;29;20467;-78
2021/12/27 04:59:58;;;;;;;8.67;6.83;;;;;;;4.17;100.00;91895.84;4882025;29;20191;-77
2021/12/27 05:02:26;;;;;;;6.93;6.47;;;;;;;3.71;100.00;91816.50;4883443;29;20281;-77
2021/12/27 05:04:55;;;;;;;8.80;7.93;;;;;;;3.86;100.00;91851.00;4881732;29;20623;-77
2021/12/27 05:07:22;;;;;;;5.63;5.33;;;;;;;3.46;100.00;91793.91;4881847;29;20198;-77
2021/12/27 05:09:49;;;;;;;5.20;4.73;;;;;;;3.88;100.00;91844.28;4888164;28;20571;-77
2021/12/27 05:12:17;;;;;;;14.10;8.00;;;;;;;4.38;100.00;91899.38;4885922;28;20297;-77
2021/12/27 05:14:44;;;;;;;7.63;7.10;;;;;;;4.07;100.00;91827.03;4882732;29;20599;-77
2021/12/27 05:17:12;;;;;;;5.40;5.07;;;;;;;4.16;100.00;91879.25;4881700;29;20562;-77
2021/12/27 05:19:39;;;;;;;6.17;5.87;;;;;;;3.69;100.00;91808.22;4882551;29;20643;-76
2021/12/27 05:22:09;;;;;;;4.17;3.97;;;;;;;4.00;100.00;91830.59;4890683;28;20673;-78
2021/12/27 05:24:38;;;;;;;10.40;9.33;;;;;;;4.42;100.00;91893.41;4895683;28;20217;-77
2021/12/27 05:27:08;;;;;;;5.97;5.40;;;;;;;4.05;100.00;91841.28;4893596;28;20578;-76
2021/12/27 05:29:36;;;;;;;6.43;6.10;;;;;;;4.52;100.00;91892.25;4899170;28;20494;-76
2021/12/27 05:32:06;;;;;;;30.87;15.77;;;;;;;4.00;100.00;91788.91;4893327;28;20662;-78
2021/12/27 05:34:34;;;;;;;19.93;13.30;;;;;;;4.62;100.00;91903.59;4889775;28;20556;-78
2021/12/27 05:37:03;;;;;;;22.20;13.67;;;;;;;4.56;100.00;91889.59;4899076;28;20503;-77
2021/12/27 05:39:34;;;;;;;9.57;6.83;;;;;;;4.03;100.00;91793.84;4892878;28;20551;-79
2021/12/27 05:42:10;;;;;;;8.23;7.60;;;;;;;4.63;100.00;91880.22;4890550;28;20500;-79
2021/12/27 05:44:39;;;;;;;8.70;8.10;;;;;;;4.25;100.00;91820.63;4891820;28;20641;-78
2021/12/27 05:47:09;;;;;;;7.87;7.37;;;;;;;4.35;100.00;91835.28;4892110;28;20572;-79
2021/12/27 05:49:37;;;;;;;6.50;6.00;;;;;;;4.31;100.00;91820.44;4891538;28;20202;-79
2021/12/27 05:52:07;;;;;;;9.27;8.20;;;;;;;4.36;100.00;91834.44;4891447;28;20575;-78
2021/12/27 05:54:36;;;;;;;7.70;6.43;;;;;;;4.68;100.00;91893.41;4898120;28;20277;-78
2021/12/27 05:57:04;;;;;;;5.97;5.47;;;;;;;4.15;100.00;91813.44;4894322;28;20571;-79
2021/12/27 05:59:32;;;;;;;14.03;7.90;;;;;;;4.71;100.00;91885.81;4886373;28;20210;-77
2021/12/27 06:02:01;;;;;;;8.50;4.80;;;;;;;4.38;100.00;91819.38;4889124;28;20556;-78
2021/12/27 06:04:29;;;;;;;4.73;4.53;;;;;;;5.29;100.00;91877.16;4898967;28;20575;-76
2021/12/27 06:06:56;;;;;;;9.33;7.00;;;;;;;5.84;100.00;91891.03;4896264;28;20575;-72
2021/12/27 06:09:23;;;;;;;10.23;8.03;;;;;;;5.95;100.00;91898.19;4886855;28;20485;-74
2021/12/27 06:11:52;;;;;;;10.90;9.50;;;;;;;6.01;100.00;91879.59;4890853;28;20480;-71
2021/12/27 06:14:19;;;;;;;15.50;12.67;;;;;;;5.94;100.00;91866.47;4889518;28;20605;-73
2021/12/27 06:16:47;;;;;;;15.63;9.63;;;;;;;5.80;100.00;91871.16;4890465;28;20499;-73
2021/12/27 06:19:14;;;;;;;11.47;9.63;;;;;;;5.75;100.00;91890.53;4890727;28;20206;-73
2021/12/27 06:21:41;;;;;;;26.50;13.63;;;;;;;5.61;100.00;91868.50;4896564;29;20452;-74
2021/12/27 06:24:08;;;;;;;21.17;12.43;;;;;;;5.63;100.00;91886.81;4890997;28;20202;-73
2021/12/27 06:26:35;;;;;;;6.13;5.57;;;;;;;5.51;100.00;91867.19;4886059;28;20575;-73
2021/12/27 06:29:04;;;;;;;8.73;7.93;;;;;;;5.46;100.00;91886.59;4898844;28;20579;-74
2021/12/27 06:31:31;;;;;;;8.17;7.57;;;;;;;5.48;100.00;91891.53;4885099;28;20524;-74
2021/12/27 06:33:59;;;;;;;10.50;9.30;;;;;;;5.45;100.00;91884.94;4889103;28;20218;-74
2021/12/27 06:36:26;;;;;;;30.47;16.23;;;;;;;5.54;100.00;91887.13;4894805;28;20207;-74
2021/12/27 06:38:53;;;;;;;29.00;16.87;;;;;;;5.50;100.00;91890.63;4897425;28;20484;-73
2021/12/27 06:41:22;;;;;;;20.13;14.83;;;;;;;5.52;100.00;91893.06;4894344;28;20520;-74
2021/12/27 06:43:49;;;;;;;13.03;11.80;;;;;;;5.48;100.00;91879.81;4891030;28;20547;-73
2021/12/27 06:46:18;;;;;;;11.80;10.97;;;;;;;5.42;100.00;91877.53;4895135;28;20587;-74
2021/12/27 06:48:46;;;;;;;19.20;13.20;;;;;;;5.30;100.00;91862.94;4893658;28;20484;-74
2021/12/27 06:51:13;;;;;;;20.73;14.60;;;;;;;5.36;100.00;91880.25;4894145;28;20710;-74
2021/12/27 06:53:40;;;;;;;21.07;12.97;;;;;;;5.35;100.00;91876.13;4892310;28;20555;-73
2021/12/27 06:56:08;;;;;;;22.23;15.70;;;;;;;5.33;100.00;91875.34;4890626;28;20596;-74
2021/12/27 06:58:35;;;;;;;21.63;15.60;;;;;;;5.42;100.00;91880.03;4894994;28;20458;-74
2021/12/27 07:01:03;;;;;;;54.23;30.83;;;;;;;5.48;100.00;91874.00;4894184;28;20210;-73
2021/12/27 07:03:32;;;;;;;35.33;21.47;;;;;;;5.57;100.00;91881.19;4893500;28;20532;-74
2021/12/27 07:05:59;;;;;;;46.57;27.10;;;;;;;5.55;100.00;91862.88;4894416;28;20591;-73
2021/12/27 07:08:27;;;;;;;21.87;15.67;;;;;;;5.55;100.00;91872.91;4890594;28;20224;-73
2021/12/27 07:10:54;;;;;;;35.10;21.37;;;;;;;5.64;100.00;91878.41;4893179;28;20633;-74
2021/12/27 07:13:22;;;;;;;19.07;14.00;;;;;;;5.69;100.00;91870.75;4894244;28;20210;-73
2021/12/27 07:15:49;;;;;;;26.87;16.37;;;;;;;5.80;100.00;91869.44;4898446;28;20607;-75
2021/12/27 07:18:22;;;;;;;10.00;9.10;;;;;;;6.10;100.00;91870.03;4897305;28;20654;-74
2021/12/27 07:20:52;;;;;;;5.07;4.87;;;;;;;6.53;100.00;91858.34;4892393;28;20285;-75
2021/12/27 07:23:19;;;;;;;19.03;11.67;;;;;;;6.81;100.00;91866.41;4886466;28;20595;-74
2021/12/27 07:25:47;;;;;;;12.97;10.77;;;;;;;6.97;100.00;91859.88;4894020;28;20605;-77
2021/12/27 07:28:14;;;;;;;3.37;3.17;;;;;;;7.32;100.00;91872.66;4897960;28;20559;-77
2021/12/27 07:30:41;;;;;;;5.00;4.53;;;;;;;7.76;100.00;91873.22;4885422;28;20453;-76
2021/12/27 07:33:09;;;;;;;3.50;3.20;;;;;;;7.85;100.00;91853.50;4896047;28;20578;-75
2021/12/27 07:35:36;;;;;;;3.23;3.00;;;;;;;7.89;99.17;91796.34;4895160;28;20564;-78
2021/12/27 07:38:06;;;;;;;5.83;5.53;;;;;;;8.51;97.17;91873.97;4893763;28;20649;-76
2021/12/27 07:40:33;;;;;;;43.47;19.93;;;;;;;8.36;94.97;91877.22;4896151;28;20585;-73
2021/12/27 07:43:01;;;;;;;2.27;2.17;;;;;;;8.59;96.11;91876.97;4883584;28;20631;-75
2021/12/27 07:45:29;;;;;;;2.77;2.57;;;;;;;8.47;94.94;91834.75;4892343;28;20525;-75
2021/12/27 07:47:56;;;;;;;3.57;1.00;;;;;;;9.37;92.44;91898.38;4887534;28;20565;-72
2021/12/27 07:50:24;;;;;;;8.73;2.83;;;;;;;9.67;90.47;91911.97;4894121;28;20499;-74
2021/12/27 07:52:52;;;;;;;1.07;1.07;;;;;;;10.05;88.66;91949.56;4897121;28;20666;-71
2021/12/27 07:55:21;;;;;;;1.70;1.70;;;;;;;10.31;87.47;91949.03;4893427;29;20203;-74
2021/12/27 07:57:48;;;;;;;1.80;1.63;;;;;;;10.43;86.45;91945.88;4887804;28;20602;-75
2021/12/27 08:00:17;;;;;;;2.00;1.90;;;;;;;10.51;86.41;91936.19;4880287;28;20477;-76
2021/12/27 08:02:44;;;;;;;5.37;5.03;;;;;;;10.55;85.72;91954.50;4892010;28;20474;-74
2021/12/27 08:05:11;;;;;;;5.63;5.13;;;;;;;10.50;85.68;91921.09;4894127;28;20585;-73
2021/12/27 08:07:38;;;;;;;1.40;1.40;;;;;;;10.64;83.79;91947.28;4892496;28;20210;-73
2021/12/27 08:10:08;;;;;;;1.20;1.20;;;;;;;10.80;82.55;91929.56;4891702;28;20496;-73
2021/12/27 08:12:39;;;;;;;2.97;2.60;;;;;;;11.08;82.01;91941.50;4888344;28;20313;-73
2021/12/27 08:15:08;;;;;;;1.93;1.83;;;;;;;11.10;81.33;91948.09;4887758;28;20571;-72
2021/12/27 08:17:35;;;;;;;1.27;1.27;;;;;;;11.12;80.44;91946.28;4889230;28;20478;-71
2021/12/27 08:20:02;;;;;;;1.03;1.03;;;;;;;11.14;80.44;91923.47;4895815;28;20641;-74
2021/12/27 08:22:29;;;;;;;2.30;2.20;;;;;;;11.27;80.66;91929.44;4895682;28;20606;-73
2021/12/27 08:25:00;;;;;;;1.80;1.70;;;;;;;11.12;80.14;91910.91;4897509;28;20440;-73
2021/12/27 08:27:29;;;;;;;3.03;1.70;;;;;;;11.24;80.06;91904.34;4892242;28;20606;-75
2021/12/27 08:30:04;;;;;;;2.20;1.90;;;;;;;11.37;79.10;91919.66;4892478;28;20673;-74
2021/12/27 08:32:32;;;;;;;1.30;1.30;;;;;;;11.44;79.02;91928.50;4892590;28;20516;-73
2021/12/27 08:35:01;;;;;;;1.00;1.00;;;;;;;11.41;78.55;91908.44;4897798;28;20454;-73
2021/12/27 08:37:28;;;;;;;0.50;0.50;;;;;;;11.43;77.03;91917.59;4895066;28;20514;-73
2021/12/27 08:39:56;;;;;;;0.70;0.70;;;;;;;11.55;77.03;91933.75;4896415;28;20618;-73
2021/12/27 08:42:23;;;;;;;5.60;1.30;;;;;;;11.57;77.02;91927.72;4892672;28;20557;-73
2021/12/27 08:44:51;;;;;;;1.03;1.03;;;;;;;11.68;77.04;91936.41;4897103;28;20486;-73
2021/12/27 08:47:20;;;;;;;0.90;0.90;;;;;;;11.77;76.45;91933.38;4892680;28;20564;-75
2021/12/27 08:49:47;;;;;;;1.53;1.43;;;;;;;11.52;76.04;91894.28;4897826;28;20481;-73
2021/12/27 08:52:17;;;;;;;0.40;0.40;;;;;;;11.80;75.04;91918.00;4900413;28;20621;-73
2021/12/27 08:54:45;;;;;;;2.33;1.70;;;;;;;11.82;75.42;91901.84;4898560;28;20579;-73
2021/12/27 08:57:12;;;;;;;1.10;1.10;;;;;;;11.97;75.07;91922.88;4893507;28;20588;-73
2021/12/27 08:59:40;;;;;;;1.23;1.23;;;;;;;11.98;74.37;91901.75;4893325;28;20589;-74
2021/12/27 09:02:09;;;;;;;0.90;0.90;;;;;;;12.17;74.05;91904.00;4900210;28;20574;-72
2021/12/27 09:04:39;;;;;;;0.90;0.70;;;;;;;12.14;74.38;91907.50;4899328;28;20457;-72
2021/12/27 09:07:08;;;;;;;0.90;0.90;;;;;;;12.08;74.42;91902.81;4894815;28;20638;-72
2021/12/27 09:09:35;;;;;;;3.63;2.40;;;;;;;12.16;74.56;91897.31;4891114;28;20610;-73
2021/12/27 09:12:02;;;;;;;2.50;1.67;;;;;;;12.23;74.42;91906.94;4896711;28;20504;-74
2021/12/27 09:14:30;;;;;;;2.17;2.07;;;;;;;12.33;73.85;91902.16;4892873;28;20565;-74
2021/12/27 09:16:57;;;;;;;1.97;1.87;;;;;;;12.26;74.20;91905.97;4893677;28;20223;-72
2021/12/27 09:19:24;;;;;;;2.53;2.27;;;;;;;12.23;74.19;91886.69;4893149;29;20207;-72
2021/12/27 09:21:53;;;;;;;10.97;6.03;;;;;;;12.40;74.11;91893.25;4882345;29;20484;-73
2021/12/27 09:24:21;;;;;;;2.30;2.10;;;;;;;12.24;74.83;91885.78;4882342;29;20195;-73
2021/12/27 09:26:48;;;;;;;1.47;1.37;;;;;;;12.12;75.08;91876.41;4881440;29;20229;-71
2021/12/27 09:29:18;;;;;;;1.90;1.80;;;;;;;12.18;75.20;91876.03;4884220;28;20509;-72
2021/12/27 09:31:46;;;;;;;3.00;2.43;;;;;;;12.30;74.67;91882.88;4890502;28;20634;-74
2021/12/27 09:34:13;;;;;;;23.17;10.40;;;;;;;12.37;74.57;91879.09;4889986;28;20560;-72
2021/12/27 09:36:40;;;;;;;2.43;2.10;;;;;;;12.34;74.38;91886.84;4891884;28;20610;-72
2021/12/27 09:39:09;;;;;;;2.33;2.03;;;;;;;12.27;74.33;91862.00;4890365;28;20461;-71
2021/12/27 09:41:37;;;;;;;8.13;3.70;;;;;;;12.63;74.35;91892.66;4881244;29;20369;-72
2021/12/27 09:44:05;;;;;;;3.03;2.87;;;;;;;12.74;73.74;91895.34;4881466;29;20571;-72
2021/12/27 09:46:35;;;;;;;42.38;24.00;;;;;;;12.96;72.83;91889.72;4880841;29;20552;-72
2021/12/27 09:49:10;;;;;;;2.53;2.17;;;;;;;12.88;71.76;91912.25;4897816;28;20280;-72
2021/12/27 09:51:38;;;;;;;7.50;6.78;;;;;;;13.13;72.18;91901.38;4893362;28;20593;-71
2021/12/27 09:54:06;;;;;;;4.45;4.05;;;;;;;13.13;71.73;91892.03;4899715;28;20206;-72
2021/12/27 09:56:34;;;;;;;9.48;7.47;;;;;;;13.33;72.18;91887.44;4897414;28;20598;-72
2021/12/27 09:59:01;;;;;;;1.80;1.40;;;;;;;13.46;70.68;91900.94;4881437;29;20556;-72
2021/12/27 10:01:29;;;;;;;1.50;1.40;;;;;;;13.29;70.37;91885.06;4880685;29;20198;-71
2021/12/27 10:03:57;;;;;;;8.55;7.53;;;;;;;13.49;70.93;91891.41;4881409;29;20576;-71
2021/12/27 10:06:28;;;;;;;1.80;1.60;;;;;;;13.83;68.03;91899.34;4879817;29;20739;-71
2021/12/27 10:08:57;;;;;;;0.70;0.70;;;;;;;14.38;67.48;91883.75;4881036;29;20270;-71
2021/12/27 10:11:27;;;;;;;1.50;1.40;;;;;;;15.06;64.69;91878.91;4879797;29;20649;-73
2021/12/27 10:14:01;;;;;;;2.35;2.17;;;;;;;16.13;61.68;91898.16;4878246;29;20659;-72
2021/12/27 10:16:30;;;;;;;4.63;3.22;;;;;;;16.82;59.68;91898.81;4878080;29;20495;-72
2021/12/27 10:19:02;;;;;;;1.70;1.60;;;;;;;17.40;56.06;91895.03;4878398;29;20605;-73
2021/12/27 10:21:30;;;;;;;1.42;1.33;;;;;;;17.00;55.90;91891.47;4879061;29;20489;-72
2021/12/27 10:24:08;;;;;;;1.27;1.27;;;;;;;16.76;55.70;91875.53;4892257;28;20496;-73
2021/12/27 10:26:37;;;;;;;2.92;2.67;;;;;;;17.09;55.63;91877.97;4890651;28;20599;-72
2021/12/27 10:29:16;;;;;;;4.45;3.13;;;;;;;17.79;54.38;91882.56;4879085;29;20592;-70
2021/12/27 10:32:05;;;;;;;2.35;2.20;;;;;;;18.49;52.24;91902.25;4881135;28;20637;-71
2021/12/27 10:34:47;;;;;;;39.58;11.80;;;;;;;18.62;50.08;91878.09;4892967;28;20509;-73
2021/12/27 10:37:24;;;;;;;13.27;4.97;;;;;;;19.12;46.21;91897.72;4892697;28;20574;-73
2021/12/27 10:40:13;;;;;;;6.43;3.70;;;;;;;19.54;46.70;91886.34;4890068;28;20519;-72
2021/12/27 10:42:45;;;;;;;362.30;100.93;;;;;;;19.51;46.55;91844.78;4893134;28;20553;-75
2021/12/27 10:45:20;;;;;;;10.98;6.47;;;;;;;20.00;44.65;91895.81;4891778;28;20582;-71
2021/12/27 10:48:02;;;;;;;2.00;0.80;;;;;;;19.13;45.50;91869.44;4892679;28;20571;-71
2021/12/27 10:50:31;;;;;;;7.13;3.60;;;;;;;18.19;48.35;91852.75;4896972;28;20641;-72
2021/12/27 10:53:15;;;;;;;3.70;3.33;;;;;;;17.71;49.48;91824.41;4891212;28;20552;-73
2021/12/27 10:55:48;;;;;;;2.55;1.45;;;;;;;16.92;51.15;91812.97;4889002;28;20586;-72
2021/12/27 10:58:23;;;;;;;39.40;11.82;;;;;;;16.51;52.58;91797.53;4888396;28;20667;-74
2021/12/27 11:00:55;;;;;;;4.78;3.17;;;;;;;16.05;53.67;91770.53;4891883;28;20202;-73
2021/12/27 11:03:28;;;;;;;3.60;3.30;;;;;;;16.96;52.89;91805.88;4889800;28;20571;-74
2021/12/27 11:05:56;;;;;;;3.40;1.63;;;;;;;17.46;51.84;91775.47;4888621;28;20606;-73
2021/12/27 11:08:26;;;;;;;1.80;1.70;;;;;;;18.25;48.61;91804.59;4897404;28;20588;-73
2021/12/27 11:10:54;;;;;;;3.58;1.70;;;;;;;18.79;47.41;91845.16;4892756;28;20581;-72
2021/12/27 11:13:22;;;;;;;2.42;2.20;;;;;;;17.89;49.08;91821.28;4891290;29;20526;-74
2021/12/27 11:16:16;;;;;;;9.00;4.20;;;;;;;17.46;51.06;91806.09;4892737;28;20514;-74
2021/12/27 11:18:44;;;;;;;2.97;2.78;;;;;;;17.56;51.19;91810.31;4888863;28;20563;-74
2021/12/27 11:21:13;;;;;;;1.85;1.75;;;;;;;17.52;50.38;91774.94;4892408;28;20265;-73
2021/12/27 11:23:41;;;;;;;1.80;1.70;;;;;;;17.79;50.10;91809.28;4890691;28;20485;-74
2021/12/27 11:26:28;;;;;;;2.20;1.58;;;;;;;18.39;47.85;91770.97;4889855;28;20492;-74
2021/12/27 11:29:10;;;;;;;1.38;1.27;;;;;;;19.18;46.72;91758.91;4882019;28;20604;-74
2021/12/27 11:31:40;;;;;;;1.10;1.10;;;;;;;20.56;44.16;91839.34;4895668;28;20202;-74
2021/12/27 11:34:12;;;;;;;1.50;1.40;;;;;;;21.14;43.45;91828.72;4893790;28;20563;-73
2021/12/27 11:36:41;;;;;;;2.55;2.35;;;;;;;21.35;42.73;91813.84;4894305;28;20580;-73
2021/12/27 11:39:27;;;;;;;3.42;3.17;;;;;;;21.87;42.13;91822.41;4892183;28;20213;-74
2021/12/27 11:42:00;;;;;;;5.35;2.42;;;;;;;22.31;39.86;91866.94;4886010;28;20241;-73